Time;durP1;ratioP1;P1;durP2;ratioP2;P2;SDS_P1;SDS_P2;PMS_P1;PMS_P2;Temp;Humidity;BMP_temperature;BMP_pressure;BME280_temperature;BME280_humidity;BME280_pressure;Samples;Min_cycle;Max_cycle;Signal;HPM_P1;HPM_P2
2022/08/07 00:01:47;;;;;;;2.20;1.50;;;;;;;;;;4988700;28;20861;-76
2022/08/07 00:04:13;;;;;;;2.97;1.47;;;;;;;;;;4982992;28;20440;-78
2022/08/07 00:06:39;;;;;;;2.23;1.20;;;;;;;;;;5001669;28;20442;-77
2022/08/07 00:09:05;;;;;;;2.43;1.40;;;;;;;;;;5000565;28;20447;-77
2022/08/07 00:11:31;;;;;;;1.93;1.00;;;;;;;;;;4996825;28;21009;-76
2022/08/07 00:13:57;;;;;;;2.17;1.10;;;;;;;;;;5000127;28;20563;-76
2022/08/07 00:16:23;;;;;;;1.40;1.00;;;;;;;;;;4994049;28;20478;-75
2022/08/07 00:18:49;;;;;;;1.73;1.20;;;;;;;;;;4991534;28;20981;-75
2022/08/07 00:21:15;;;;;;;1.30;1.13;;;;;;;;;;5000864;28;20444;-76
2022/08/07 00:23:41;;;;;;;1.80;0.90;;;;;;;;;;5000757;28;20448;-76
2022/08/07 00:26:08;;;;;;;2.40;1.37;;;;;;;;;;4973420;28;20427;-76
2022/08/07 00:28:34;;;;;;;2.40;1.40;;;;;;;;;;4991481;28;21013;-76
2022/08/07 00:31:01;;;;;;;3.57;1.10;;;;;;;;;;4989464;28;20484;-76
2022/08/07 00:33:27;;;;;;;3.33;1.30;;;;;;;;;;4983226;28;20470;-76
2022/08/07 00:35:56;;;;;;;1.60;1.17;;;;;;;;;;5002914;28;20432;-74
2022/08/07 00:38:22;;;;;;;3.57;1.43;;;;;;;;;;4991138;28;20440;-76
2022/08/07 00:40:48;;;;;;;3.97;1.43;;;;;;;;;;5007158;28;20446;-75
2022/08/07 00:43:14;;;;;;;1.60;1.10;;;;;;;;;;5010264;28;20455;-76
2022/08/07 00:45:40;;;;;;;2.37;1.27;;;;;;;;;;5005955;28;21818;-76
2022/08/07 00:48:06;;;;;;;2.07;1.70;;;;;;;;;;5005348;28;20482;-76
2022/08/07 00:50:33;;;;;;;1.40;1.10;;;;;;;;;;5001431;28;20483;-76
2022/08/07 00:52:59;;;;;;;3.03;1.17;;;;;;;;;;5002423;28;20451;-76
2022/08/07 00:55:25;;;;;;;4.80;1.20;;;;;;;;;;4971134;28;20914;-75
2022/08/07 00:57:51;;;;;;;1.83;1.10;;;;;;;;;;5001456;28;20436;-75
2022/08/07 01:00:17;;;;;;;2.07;1.60;;;;;;;;;;4971276;28;20442;-75
2022/08/07 01:02:43;;;;;;;2.17;1.20;;;;;;;;;;5002136;28;20476;-75
2022/08/07 01:05:09;;;;;;;2.03;1.40;;;;;;;;;;4999909;28;20444;-74
2022/08/07 01:07:35;;;;;;;1.20;1.10;;;;;;;;;;4996842;28;20470;-76
2022/08/07 01:10:01;;;;;;;2.70;1.53;;;;;;;;;;4986541;28;20437;-76
2022/08/07 01:12:28;;;;;;;1.70;1.33;;;;;;;;;;5004903;28;20483;-75
2022/08/07 01:14:56;;;;;;;1.70;1.43;;;;;;;;;;5009466;28;20431;-75
2022/08/07 01:17:22;;;;;;;2.70;1.60;;;;;;;;;;5002061;28;20462;-76
2022/08/07 01:19:48;;;;;;;1.60;1.20;;;;;;;;;;5000775;28;20443;-76
2022/08/07 01:22:14;;;;;;;2.60;1.30;;;;;;;;;;5003222;28;20428;-76
2022/08/07 01:24:40;;;;;;;4.53;1.33;;;;;;;;;;5002905;28;20459;-75
2022/08/07 01:27:07;;;;;;;2.03;1.63;;;;;;;;;;5004717;28;20442;-75
2022/08/07 01:29:33;;;;;;;2.87;1.80;;;;;;;;;;4992331;28;22422;-76
2022/08/07 01:31:59;;;;;;;2.90;1.83;;;;;;;;;;5004829;28;20483;-76
2022/08/07 01:34:25;;;;;;;2.00;1.60;;;;;;;;;;5005956;28;20467;-76
2022/08/07 01:36:51;;;;;;;2.33;1.57;;;;;;;;;;4975785;28;20444;-75
2022/08/07 01:39:17;;;;;;;2.03;1.63;;;;;;;;;;4990764;28;20472;-76
2022/08/07 01:41:43;;;;;;;1.83;1.30;;;;;;;;;;5007812;28;20475;-75
2022/08/07 01:44:09;;;;;;;2.67;1.30;;;;;;;;;;4992805;28;20437;-75
2022/08/07 01:46:35;;;;;;;2.83;1.57;;;;;;;;;;4997379;28;20547;-76
2022/08/07 01:49:01;;;;;;;1.40;1.20;;;;;;;;;;5002421;28;20448;-75
2022/08/07 01:51:27;;;;;;;2.37;1.23;;;;;;;;;;5001938;28;21397;-76
2022/08/07 01:53:56;;;;;;;2.10;1.80;;;;;;;;;;4988126;28;20439;-75
2022/08/07 01:56:25;;;;;;;1.80;1.20;;;;;;;;;;4989427;28;20447;-75
2022/08/07 01:59:03;;;;;;;2.30;1.37;;;;;;;;;;4989020;28;20440;-76
2022/08/07 02:01:32;;;;;;;2.60;1.50;;;;;;;;;;4997146;28;20448;-75
2022/08/07 02:04:28;;;;;;;2.40;1.73;;;;;;;;;;4991279;28;20464;-75
2022/08/07 02:06:57;;;;;;;3.17;1.77;;;;;;;;;;4983630;28;20443;-75
2022/08/07 02:09:23;;;;;;;5.03;1.90;;;;;;;;;;4984906;28;20439;-75
2022/08/07 02:11:50;;;;;;;4.30;1.90;;;;;;;;;;4989335;28;20537;-75
2022/08/07 02:14:16;;;;;;;3.80;2.37;;;;;;;;;;5004717;28;20798;-76
2022/08/07 02:16:42;;;;;;;2.67;1.87;;;;;;;;;;4991680;28;20796;-75
2022/08/07 02:19:09;;;;;;;2.90;1.90;;;;;;;;;;4991195;28;20471;-75
2022/08/07 02:21:36;;;;;;;5.37;1.90;;;;;;;;;;5008020;28;20436;-75
2022/08/07 02:24:03;;;;;;;3.40;2.00;;;;;;;;;;4988147;28;20441;-75
2022/08/07 02:26:29;;;;;;;2.97;2.27;;;;;;;;;;4999057;28;20444;-76
2022/08/07 02:28:55;;;;;;;3.70;2.00;;;;;;;;;;4985915;28;20431;-75
2022/08/07 02:31:21;;;;;;;2.47;1.67;;;;;;;;;;4989534;28;20482;-75
2022/08/07 02:33:47;;;;;;;3.90;1.70;;;;;;;;;;4988581;28;20431;-75
2022/08/07 02:36:13;;;;;;;2.07;1.83;;;;;;;;;;4998931;28;20440;-75
2022/08/07 02:38:39;;;;;;;2.27;1.60;;;;;;;;;;4982762;28;20444;-75
2022/08/07 02:41:05;;;;;;;2.30;1.73;;;;;;;;;;4991192;28;20491;-74
2022/08/07 02:43:32;;;;;;;3.23;1.53;;;;;;;;;;4968184;28;20530;-75
2022/08/07 02:45:58;;;;;;;2.13;1.40;;;;;;;;;;4991955;28;20444;-75
2022/08/07 02:48:27;;;;;;;2.10;1.83;;;;;;;;;;4994704;28;20440;-76
2022/08/07 02:50:54;;;;;;;3.10;1.70;;;;;;;;;;4996089;28;20484;-75
2022/08/07 02:53:26;;;;;;;2.10;1.90;;;;;;;;;;4981611;28;20960;-75
2022/08/07 02:55:52;;;;;;;2.40;1.50;;;;;;;;;;4986562;28;20520;-76
2022/08/07 02:58:19;;;;;;;3.13;1.70;;;;;;;;;;4992471;28;20504;-75
2022/08/07 03:00:48;;;;;;;3.20;1.93;;;;;;;;;;4979325;28;20448;-76
2022/08/07 03:03:14;;;;;;;4.93;1.63;;;;;;;;;;5007949;28;20475;-75
2022/08/07 03:05:50;;;;;;;2.10;1.60;;;;;;;;;;5008495;28;20440;-74
2022/08/07 03:08:21;;;;;;;1.90;1.50;;;;;;;;;;4993299;28;20451;-75
2022/08/07 03:10:47;;;;;;;2.57;1.60;;;;;;;;;;5005654;28;20571;-75
2022/08/07 03:13:17;;;;;;;1.80;1.30;;;;;;;;;;4988147;28;20472;-75
2022/08/07 03:15:49;;;;;;;4.80;1.57;;;;;;;;;;5002406;28;20436;-76
2022/08/07 03:18:18;;;;;;;3.70;2.60;;;;;;;;;;5006680;28;20814;-75
2022/08/07 03:20:44;;;;;;;3.83;1.50;;;;;;;;;;4990059;28;20510;-75
2022/08/07 03:23:13;;;;;;;1.83;1.50;;;;;;;;;;4993843;28;20443;-75
2022/08/07 03:25:40;;;;;;;3.07;1.50;;;;;;;;;;4992615;28;20436;-75
2022/08/07 03:28:18;;;;;;;1.70;1.47;;;;;;;;;;4992077;28;20465;-75
2022/08/07 03:30:44;;;;;;;2.33;1.60;;;;;;;;;;4991037;28;20471;-75
2022/08/07 03:33:14;;;;;;;1.97;1.60;;;;;;;;;;4993843;28;20569;-75
2022/08/07 03:35:40;;;;;;;2.80;1.50;;;;;;;;;;5014135;28;20524;-75
2022/08/07 03:38:17;;;;;;;3.13;1.50;;;;;;;;;;4996006;28;20436;-75
2022/08/07 03:40:43;;;;;;;3.00;2.03;;;;;;;;;;4993160;28;20451;-75
2022/08/07 03:43:18;;;;;;;1.60;1.40;;;;;;;;;;4992772;28;20432;-75
2022/08/07 03:45:44;;;;;;;2.50;1.60;;;;;;;;;;5003955;28;20439;-77
2022/08/07 03:48:11;;;;;;;3.40;1.93;;;;;;;;;;4991066;28;20436;-75
2022/08/07 03:50:40;;;;;;;3.23;1.40;;;;;;;;;;4990109;28;20435;-75
2022/08/07 03:53:06;;;;;;;1.80;1.30;;;;;;;;;;4985841;28;20457;-75
2022/08/07 03:55:32;;;;;;;3.27;1.50;;;;;;;;;;4986679;28;20516;-76
2022/08/07 03:57:58;;;;;;;1.77;1.50;;;;;;;;;;4986123;28;20432;-75
2022/08/07 04:00:27;;;;;;;2.33;1.50;;;;;;;;;;4979291;28;20535;-75
2022/08/07 04:02:53;;;;;;;1.67;1.47;;;;;;;;;;4975755;28;21745;-74
2022/08/07 04:05:20;;;;;;;5.53;1.70;;;;;;;;;;4984451;28;20452;-75
2022/08/07 04:07:46;;;;;;;1.70;1.60;;;;;;;;;;4996787;28;20440;-75
2022/08/07 04:10:13;;;;;;;1.73;1.40;;;;;;;;;;4987637;28;20483;-75
2022/08/07 04:12:39;;;;;;;2.50;1.57;;;;;;;;;;4986011;28;20836;-75
2022/08/07 04:15:05;;;;;;;2.10;1.60;;;;;;;;;;4994835;28;20451;-75
2022/08/07 04:17:32;;;;;;;3.50;1.60;;;;;;;;;;4982680;28;20444;-75
2022/08/07 04:19:58;;;;;;;2.13;1.50;;;;;;;;;;5001025;28;21168;-74
2022/08/07 04:22:24;;;;;;;1.60;1.33;;;;;;;;;;4977816;28;20502;-75
2022/08/07 04:24:50;;;;;;;2.60;1.63;;;;;;;;;;5004865;28;20470;-76
2022/08/07 04:27:19;;;;;;;1.43;1.17;;;;;;;;;;4982535;28;20515;-75
2022/08/07 04:29:45;;;;;;;2.53;1.40;;;;;;;;;;5000768;28;20433;-75
2022/08/07 04:32:11;;;;;;;6.57;1.60;;;;;;;;;;4996181;28;20475;-75
2022/08/07 04:34:37;;;;;;;2.73;1.60;;;;;;;;;;4986816;28;20850;-76
2022/08/07 04:37:04;;;;;;;2.73;1.60;;;;;;;;;;4987084;28;20595;-75
2022/08/07 04:39:30;;;;;;;1.90;1.70;;;;;;;;;;4996635;28;20957;-75
2022/08/07 04:41:56;;;;;;;1.33;1.23;;;;;;;;;;4971057;28;20439;-75
2022/08/07 04:44:22;;;;;;;2.77;1.90;;;;;;;;;;5000577;28;20559;-76
2022/08/07 04:47:07;;;;;;;2.20;1.70;;;;;;;;;;5002474;28;20528;-75
2022/08/07 04:49:44;;;;;;;1.50;1.37;;;;;;;;;;4998439;28;20440;-75
2022/08/07 04:52:27;;;;;;;1.67;1.40;;;;;;;;;;4968907;28;20471;-75
2022/08/07 04:55:01;;;;;;;1.90;1.70;;;;;;;;;;4995173;28;20458;-75
2022/08/07 04:57:29;;;;;;;1.97;1.50;;;;;;;;;;4966732;28;20962;-75
2022/08/07 05:00:05;;;;;;;2.13;1.50;;;;;;;;;;4998228;28;20502;-75
2022/08/07 05:02:33;;;;;;;2.80;1.70;;;;;;;;;;4993669;28;20452;-75
2022/08/07 05:05:17;;;;;;;2.03;1.50;;;;;;;;;;4984565;28;20537;-75
2022/08/07 05:07:49;;;;;;;2.60;1.67;;;;;;;;;;4986285;28;20440;-76
2022/08/07 05:10:30;;;;;;;2.10;1.50;;;;;;;;;;4999611;28;21049;-75
2022/08/07 05:13:02;;;;;;;2.00;1.67;;;;;;;;;;5003729;28;20517;-75
2022/08/07 05:15:34;;;;;;;1.63;1.40;;;;;;;;;;5000690;28;20444;-75
2022/08/07 05:18:07;;;;;;;1.53;1.43;;;;;;;;;;4996037;28;20973;-75
2022/08/07 05:20:34;;;;;;;1.70;1.57;;;;;;;;;;4988864;28;20452;-74
2022/08/07 05:23:01;;;;;;;4.33;1.83;;;;;;;;;;5001385;28;20955;-74
2022/08/07 05:25:27;;;;;;;1.90;1.60;;;;;;;;;;4981520;28;22129;-74
2022/08/07 05:27:53;;;;;;;1.97;1.50;;;;;;;;;;4995471;28;21020;-75
2022/08/07 05:30:19;;;;;;;2.73;1.80;;;;;;;;;;4982790;28;20961;-74
2022/08/07 05:32:46;;;;;;;2.20;1.60;;;;;;;;;;5004782;28;20487;-74
2022/08/07 05:35:12;;;;;;;3.27;1.93;;;;;;;;;;4971287;28;20466;-74
2022/08/07 05:37:38;;;;;;;2.33;1.50;;;;;;;;;;4986937;28;20432;-75
2022/08/07 05:40:04;;;;;;;4.90;2.30;;;;;;;;;;4992845;28;20447;-73
2022/08/07 05:42:30;;;;;;;3.67;2.40;;;;;;;;;;4974964;28;20513;-74
2022/08/07 05:44:56;;;;;;;2.47;2.10;;;;;;;;;;4964587;28;21009;-75
2022/08/07 05:47:22;;;;;;;3.03;2.10;;;;;;;;;;4969023;28;20191;-74
2022/08/07 05:49:48;;;;;;;2.40;2.20;;;;;;;;;;4971206;28;20443;-74
2022/08/07 05:52:14;;;;;;;2.97;2.20;;;;;;;;;;4978527;28;20567;-73
2022/08/07 05:54:40;;;;;;;2.90;2.17;;;;;;;;;;4983720;28;20799;-75
2022/08/07 05:57:06;;;;;;;7.50;2.50;;;;;;;;;;4987353;28;20547;-76
2022/08/07 05:59:33;;;;;;;2.90;2.23;;;;;;;;;;4951395;28;20564;-74
2022/08/07 06:02:00;;;;;;;2.43;2.23;;;;;;;;;;4966810;28;23318;-74
2022/08/07 06:04:26;;;;;;;2.50;2.30;;;;;;;;;;4953760;28;20444;-74
2022/08/07 06:06:52;;;;;;;7.07;3.37;;;;;;;;;;4981261;28;21092;-76
2022/08/07 06:09:18;;;;;;;2.97;2.27;;;;;;;;;;4970429;28;20779;-76
2022/08/07 06:11:44;;;;;;;2.97;2.70;;;;;;;;;;4997523;28;20483;-75
2022/08/07 06:14:10;;;;;;;5.47;2.70;;;;;;;;;;4994174;28;21206;-76
2022/08/07 06:16:39;;;;;;;2.80;2.40;;;;;;;;;;5003675;28;20503;-75
2022/08/07 06:19:08;;;;;;;3.90;2.70;;;;;;;;;;4994407;28;20446;-75
2022/08/07 06:21:34;;;;;;;3.67;2.57;;;;;;;;;;5005922;28;20474;-75
2022/08/07 06:24:00;;;;;;;4.17;2.27;;;;;;;;;;4989797;28;20919;-76
2022/08/07 06:26:26;;;;;;;3.60;3.30;;;;;;;;;;5003176;28;20439;-74
2022/08/07 06:29:03;;;;;;;3.73;3.20;;;;;;;;;;4987892;28;20443;-74
2022/08/07 06:31:29;;;;;;;3.10;2.80;;;;;;;;;;4993767;28;20559;-75
2022/08/07 06:33:59;;;;;;;3.03;2.73;;;;;;;;;;4994072;28;20432;-75
2022/08/07 06:36:29;;;;;;;3.73;3.10;;;;;;;;;;4996416;28;20451;-75
2022/08/07 06:38:58;;;;;;;3.70;3.30;;;;;;;;;;4989313;28;20460;-74
2022/08/07 06:41:36;;;;;;;4.53;2.90;;;;;;;;;;5004713;28;20440;-75
2022/08/07 06:44:02;;;;;;;3.70;3.33;;;;;;;;;;4988496;28;21531;-74
2022/08/07 06:46:30;;;;;;;3.43;3.13;;;;;;;;;;4991481;28;20489;-75
2022/08/07 06:48:56;;;;;;;5.03;3.57;;;;;;;;;;4997663;28;20433;-75
2022/08/07 06:51:23;;;;;;;4.00;3.60;;;;;;;;;;5010101;28;20686;-74
2022/08/07 06:53:49;;;;;;;5.13;2.90;;;;;;;;;;5007711;28;20436;-74
2022/08/07 06:56:15;;;;;;;4.90;3.40;;;;;;;;;;4970482;28;20452;-74
2022/08/07 06:58:45;;;;;;;3.97;3.33;;;;;;;;;;4988178;28;20456;-75
2022/08/07 07:01:15;;;;;;;4.20;3.40;;;;;;;;;;4980469;28;20542;-74
2022/08/07 07:03:41;;;;;;;3.83;3.43;;;;;;;;;;5001865;28;20447;-74
2022/08/07 07:06:08;;;;;;;3.70;3.40;;;;;;;;;;4978110;28;20434;-75
2022/08/07 07:09:02;;;;;;;3.70;3.30;;;;;;;;;;4997136;28;20448;-74
2022/08/07 07:11:28;;;;;;;3.80;3.50;;;;;;;;;;4981993;28;20475;-74
2022/08/07 07:13:58;;;;;;;4.60;3.97;;;;;;;;;;4995607;28;20431;-76
2022/08/07 07:16:24;;;;;;;5.33;2.90;;;;;;;;;;4993051;28;20440;-75
2022/08/07 07:18:51;;;;;;;4.13;3.63;;;;;;;;;;4997430;28;20492;-74
2022/08/07 07:21:17;;;;;;;4.17;3.20;;;;;;;;;;4996278;28;20450;-75
2022/08/07 07:23:43;;;;;;;3.50;3.20;;;;;;;;;;4990815;28;20491;-75
2022/08/07 07:26:10;;;;;;;4.00;3.23;;;;;;;;;;4999013;28;20447;-74
2022/08/07 07:28:55;;;;;;;3.90;3.60;;;;;;;;;;4965026;28;20991;-75
2022/08/07 07:31:29;;;;;;;3.30;3.10;;;;;;;;;;4990192;28;20502;-76
2022/08/07 07:33:55;;;;;;;3.80;3.50;;;;;;;;;;4994507;28;20444;-74
2022/08/07 07:36:22;;;;;;;3.67;3.30;;;;;;;;;;4978487;28;20493;-74
2022/08/07 07:38:48;;;;;;;3.13;2.90;;;;;;;;;;4984087;28;20486;-75
2022/08/07 07:41:14;;;;;;;3.83;3.53;;;;;;;;;;4983378;28;21212;-77
2022/08/07 07:43:41;;;;;;;3.63;3.33;;;;;;;;;;4970127;28;20456;-75
2022/08/07 07:46:07;;;;;;;3.60;3.30;;;;;;;;;;4999801;28;20446;-74
2022/08/07 07:48:33;;;;;;;5.30;3.07;;;;;;;;;;4985228;28;20439;-75
2022/08/07 07:50:59;;;;;;;3.63;2.70;;;;;;;;;;4982841;28;21013;-75
2022/08/07 07:53:26;;;;;;;3.87;3.47;;;;;;;;;;4984757;28;20572;-74
2022/08/07 07:55:52;;;;;;;3.47;3.17;;;;;;;;;;4986249;28;20432;-75
2022/08/07 07:58:18;;;;;;;3.50;2.97;;;;;;;;;;4973006;28;20444;-75
2022/08/07 08:00:44;;;;;;;3.03;2.73;;;;;;;;;;4996381;28;20458;-75
2022/08/07 08:03:11;;;;;;;3.20;2.90;;;;;;;;;;4989259;28;21016;-75
2022/08/07 08:05:38;;;;;;;2.83;2.60;;;;;;;;;;4997448;28;20947;-74
2022/08/07 08:08:04;;;;;;;3.80;2.77;;;;;;;;;;4999661;28;20924;-75
2022/08/07 08:10:30;;;;;;;3.33;2.30;;;;;;;;;;4998799;28;20443;-75
2022/08/07 08:12:55;;;;;;;2.60;2.40;;;;;;;;;;5001259;28;20491;-74
2022/08/07 08:15:21;;;;;;;3.27;2.60;;;;;;;;;;4994110;28;20473;-75
2022/08/07 08:17:48;;;;;;;3.43;3.00;;;;;;;;;;4988681;28;20208;-75
2022/08/07 08:20:14;;;;;;;2.97;2.60;;;;;;;;;;5000064;28;20450;-75
2022/08/07 08:28:15;;;;;;;2.47;2.00;;;;;;;;;;4995051;28;20977;-75
2022/08/07 08:30:44;;;;;;;2.60;1.90;;;;;;;;;;4984309;28;20440;-75
2022/08/07 08:33:15;;;;;;;2.20;2.00;;;;;;;;;;4988825;28;20436;-75
2022/08/07 08:35:42;;;;;;;1.97;1.77;;;;;;;;;;4973888;28;20444;-75
2022/08/07 08:38:27;;;;;;;2.37;1.93;;;;;;;;;;4989962;28;20437;-75
2022/08/07 08:40:54;;;;;;;2.77;2.00;;;;;;;;;;4989233;28;20434;-75
2022/08/07 08:43:55;;;;;;;2.20;1.80;;;;;;;;;;4980798;28;20455;-76
2022/08/07 08:46:31;;;;;;;2.50;1.87;;;;;;;;;;4997199;28;20510;-75
2022/08/07 08:49:09;;;;;;;4.20;2.10;;;;;;;;;;4981544;28;20442;-75
2022/08/07 08:52:12;;;;;;;3.97;2.10;;;;;;;;;;4963697;28;20475;-80
2022/08/07 08:54:41;;;;;;;2.20;1.70;;;;;;;;;;4972001;28;21004;-79
2022/08/07 08:57:14;;;;;;;4.37;1.77;;;;;;;;;;4989527;28;20447;-76
2022/08/07 08:59:47;;;;;;;2.33;2.03;;;;;;;;;;4973093;28;20870;-77
2022/08/07 09:02:24;;;;;;;2.97;2.53;;;;;;;;;;4985218;28;20433;-77
2022/08/07 09:04:53;;;;;;;2.20;1.93;;;;;;;;;;4963789;28;21180;-76
2022/08/07 09:07:24;;;;;;;2.07;1.67;;;;;;;;;;4972152;28;21096;-76
2022/08/07 09:09:53;;;;;;;1.90;1.50;;;;;;;;;;4981090;28;20440;-77
2022/08/07 09:12:38;;;;;;;2.40;1.50;;;;;;;;;;4978110;28;20673;-80
2022/08/07 09:15:17;;;;;;;;;;;;;;;;;;;;;
2022/08/07 09:17:59;;;;;;;3.00;1.73;;;;;;;;;;4969201;28;20440;-75
2022/08/07 09:23:52;;;;;;;2.40;1.80;;;;;;;;;;4982930;28;20502;-75
2022/08/07 09:26:32;;;;;;;2.43;1.50;;;;;;;;;;4989235;28;21081;-76
2022/08/07 09:28:59;;;;;;;1.73;1.27;;;;;;;;;;4951361;28;21058;-75
2022/08/07 09:31:53;;;;;;;2.47;1.70;;;;;;;;;;4987974;28;20901;-76
2022/08/07 09:34:48;;;;;;;3.40;1.70;;;;;;;;;;4988285;28;20446;-75
2022/08/07 09:37:25;;;;;;;2.80;2.00;;;;;;;;;;4982024;28;20444;-74
2022/08/07 09:40:10;;;;;;;1.80;1.50;;;;;;;;;;4983060;28;20451;-74
2022/08/07 09:42:36;;;;;;;2.20;1.40;;;;;;;;;;4972612;28;20447;-75
2022/08/07 09:45:05;;;;;;;4.53;1.50;;;;;;;;;;5000126;28;20817;-75
2022/08/07 09:47:44;;;;;;;2.10;1.47;;;;;;;;;;4963876;28;20212;-75
2022/08/07 09:50:13;;;;;;;2.10;1.43;;;;;;;;;;4995499;28;20435;-77
2022/08/07 09:52:39;;;;;;;2.17;1.73;;;;;;;;;;4962025;28;22374;-74
2022/08/07 09:55:08;;;;;;;3.30;1.50;;;;;;;;;;4983708;28;20436;-75
2022/08/07 09:57:53;;;;;;;2.47;1.40;;;;;;;;;;4980958;28;21147;-75
2022/08/07 10:00:50;;;;;;;3.97;1.40;;;;;;;;;;5007059;28;20432;-76
2022/08/07 10:03:37;;;;;;;1.80;1.53;;;;;;;;;;4974831;28;20526;-74
2022/08/07 10:09:19;;;;;;;4.73;2.33;;;;;;;;;;4925210;28;20434;-75
2022/08/07 10:11:51;;;;;;;2.97;1.43;;;;;;;;;;4993478;28;20490;-75
2022/08/07 10:14:43;;;;;;;3.80;1.43;;;;;;;;;;4979765;28;20452;-75
2022/08/07 10:17:30;;;;;;;5.37;2.07;;;;;;;;;;4978816;28;20722;-74
2022/08/07 10:19:56;;;;;;;2.63;1.10;;;;;;;;;;4994978;28;20424;-75
2022/08/07 10:22:34;;;;;;;1.70;1.33;;;;;;;;;;4967534;28;20478;-75
2022/08/07 10:25:22;;;;;;;2.47;1.50;;;;;;;;;;4978767;28;20468;-75
2022/08/07 10:28:07;;;;;;;2.57;1.30;;;;;;;;;;4998628;28;20709;-75
2022/08/07 10:30:52;;;;;;;1.73;1.20;;;;;;;;;;4994950;28;20475;-76
2022/08/07 10:33:37;;;;;;;2.17;1.33;;;;;;;;;;4993316;28;20509;-77
2022/08/07 10:36:28;;;;;;;1.60;1.27;;;;;;;;;;4998991;28;20428;-75
2022/08/07 10:39:00;;;;;;;2.00;1.20;;;;;;;;;;4958072;28;20456;-76
2022/08/07 10:41:40;;;;;;;2.17;1.40;;;;;;;;;;4984746;28;20808;-74
2022/08/07 10:44:09;;;;;;;2.23;1.40;;;;;;;;;;4976410;28;20468;-75
2022/08/07 10:46:43;;;;;;;2.17;1.40;;;;;;;;;;4993168;28;20436;-75
2022/08/07 10:49:13;;;;;;;7.53;1.50;;;;;;;;;;4957976;28;20459;-75
2022/08/07 10:52:02;;;;;;;1.73;1.20;;;;;;;;;;4999925;28;20540;-75
2022/08/07 10:54:28;;;;;;;2.20;1.30;;;;;;;;;;4952583;28;20496;-75
2022/08/07 10:57:15;;;;;;;1.70;1.20;;;;;;;;;;4991918;28;20522;-76
2022/08/07 11:00:03;;;;;;;3.20;1.53;;;;;;;;;;4982344;28;20466;-75
2022/08/07 11:02:48;;;;;;;2.33;1.50;;;;;;;;;;4977522;28;20441;-76
2022/08/07 11:05:33;;;;;;;1.80;1.10;;;;;;;;;;4994489;28;20499;-76
2022/08/07 11:08:18;;;;;;;4.17;1.37;;;;;;;;;;4982795;28;20448;-76
2022/08/07 11:10:48;;;;;;;1.93;1.33;;;;;;;;;;4981645;28;21059;-75
2022/08/07 11:13:31;;;;;;;1.80;1.37;;;;;;;;;;4981354;28;20470;-76
2022/08/07 11:15:58;;;;;;;2.00;1.20;;;;;;;;;;4981789;28;20789;-76
2022/08/07 11:18:34;;;;;;;2.30;1.50;;;;;;;;;;5001852;28;20444;-76
2022/08/07 11:21:11;;;;;;;3.53;1.50;;;;;;;;;;4953949;28;20451;-75
2022/08/07 11:23:57;;;;;;;1.90;1.20;;;;;;;;;;4983519;28;20435;-76
2022/08/07 11:26:36;;;;;;;1.77;1.23;;;;;;;;;;4953386;28;20432;-75
2022/08/07 11:29:06;;;;;;;3.07;1.37;;;;;;;;;;4999936;28;20932;-75
2022/08/07 11:31:39;;;;;;;2.00;1.33;;;;;;;;;;4961789;28;20642;-76
2022/08/07 11:34:07;;;;;;;2.20;1.20;;;;;;;;;;5005433;28;20522;-75
2022/08/07 11:36:33;;;;;;;2.03;0.97;;;;;;;;;;4998725;28;20494;-75
2022/08/07 11:39:12;;;;;;;1.60;1.20;;;;;;;;;;5004176;28;20425;-75
2022/08/07 11:41:57;;;;;;;1.50;1.07;;;;;;;;;;4976467;28;20448;-75
2022/08/07 11:44:26;;;;;;;2.53;1.27;;;;;;;;;;5007328;28;20523;-77
2022/08/07 11:46:55;;;;;;;1.90;1.40;;;;;;;;;;4992703;28;20866;-75
2022/08/07 11:49:21;;;;;;;2.43;1.07;;;;;;;;;;4996756;28;20473;-74
2022/08/07 11:52:06;;;;;;;2.67;1.10;;;;;;;;;;4981145;28;21148;-76
2022/08/07 11:54:46;;;;;;;2.13;1.20;;;;;;;;;;5007951;28;20451;-75
2022/08/07 11:57:17;;;;;;;2.23;1.13;;;;;;;;;;4957263;28;20444;-75
2022/08/07 12:02:44;;;;;;;2.63;1.40;;;;;;;;;;4981831;28;20573;-75
2022/08/07 12:05:11;;;;;;;2.13;1.00;;;;;;;;;;5002086;28;20444;-75
2022/08/07 12:07:38;;;;;;;1.73;1.23;;;;;;;;;;5000567;28;20789;-75
2022/08/07 12:10:25;;;;;;;1.70;1.20;;;;;;;;;;4966567;28;20866;-74
2022/08/07 12:13:01;;;;;;;1.60;1.03;;;;;;;;;;4995910;28;20507;-75
2022/08/07 12:15:30;;;;;;;2.57;1.20;;;;;;;;;;4985097;28;20668;-75
2022/08/07 12:18:03;;;;;;;2.50;1.10;;;;;;;;;;4987998;28;20440;-74
2022/08/07 12:20:34;;;;;;;2.53;1.27;;;;;;;;;;4988120;28;20454;-75
2022/08/07 12:23:19;;;;;;;1.97;1.20;;;;;;;;;;4978662;28;20445;-76
2022/08/07 12:25:51;;;;;;;2.50;1.20;;;;;;;;;;5001033;28;20762;-75
2022/08/07 12:28:42;;;;;;;2.37;1.10;;;;;;;;;;4972847;28;21182;-76
2022/08/07 12:31:11;;;;;;;1.67;1.07;;;;;;;;;;4998970;28;20518;-75
2022/08/07 12:33:37;;;;;;;2.97;1.20;;;;;;;;;;4976626;28;20942;-74
2022/08/07 12:36:03;;;;;;;1.40;1.10;;;;;;;;;;4990050;28;21083;-75
2022/08/07 12:38:30;;;;;;;2.23;1.10;;;;;;;;;;4984643;28;20773;-74
2022/08/07 12:41:03;;;;;;;2.90;1.20;;;;;;;;;;5004909;28;20539;-76
2022/08/07 12:43:31;;;;;;;1.47;0.93;;;;;;;;;;4964859;28;20662;-75
2022/08/07 12:46:09;;;;;;;1.40;1.00;;;;;;;;;;5004664;28;20521;-74
2022/08/07 12:48:35;;;;;;;1.70;1.10;;;;;;;;;;4983011;28;20546;-74
2022/08/07 12:51:13;;;;;;;2.43;1.20;;;;;;;;;;5004504;28;20431;-75
2022/08/07 12:53:40;;;;;;;1.60;1.20;;;;;;;;;;4972943;28;20211;-74
2022/08/07 12:56:47;;;;;;;1.70;1.20;;;;;;;;;;5004832;28;20434;-75
2022/08/07 12:59:16;;;;;;;1.70;1.00;;;;;;;;;;4872732;29;20476;-75
2022/08/07 13:01:58;;;;;;;1.97;1.20;;;;;;;;;;4895033;29;21012;-75
2022/08/07 13:04:42;;;;;;;1.60;1.17;;;;;;;;;;4944089;28;20451;-75
2022/08/07 13:07:14;;;;;;;1.57;1.10;;;;;;;;;;5002641;28;20442;-74
2022/08/07 13:09:52;;;;;;;2.60;1.50;;;;;;;;;;4949202;28;21578;-74
2022/08/07 13:12:28;;;;;;;1.63;1.17;;;;;;;;;;5005005;28;20731;-76
2022/08/07 13:15:17;;;;;;;2.70;1.30;;;;;;;;;;4963413;28;20886;-76
2022/08/07 13:17:50;;;;;;;2.00;1.30;;;;;;;;;;4987903;28;20543;-75
2022/08/07 13:20:38;;;;;;;1.50;0.83;;;;;;;;;;4991092;28;20470;-75
2022/08/07 13:23:08;;;;;;;1.50;1.20;;;;;;;;;;5001694;28;20791;-76
2022/08/07 13:25:39;;;;;;;1.87;1.40;;;;;;;;;;4991568;28;20439;-75
2022/08/07 13:28:31;;;;;;;2.07;1.40;;;;;;;;;;4984874;28;20451;-74
2022/08/07 13:31:03;;;;;;;2.20;1.37;;;;;;;;;;5012949;28;20794;-75
2022/08/07 13:33:47;;;;;;;2.03;1.03;;;;;;;;;;5007704;28;20805;-75
2022/08/07 13:36:19;;;;;;;2.37;1.20;;;;;;;;;;5008193;28;20463;-75
2022/08/07 13:38:55;;;;;;;2.37;1.17;;;;;;;;;;4992390;28;20656;-75
2022/08/07 13:41:35;;;;;;;2.33;1.37;;;;;;;;;;5011550;28;20802;-75
2022/08/07 13:44:01;;;;;;;2.10;1.10;;;;;;;;;;5011848;28;20467;-75
2022/08/07 13:46:31;;;;;;;2.10;1.50;;;;;;;;;;5009241;28;20444;-75
2022/08/07 13:48:57;;;;;;;1.90;1.20;;;;;;;;;;4964452;28;20448;-76
2022/08/07 13:51:25;;;;;;;1.90;1.20;;;;;;;;;;5006702;28;20471;-74
2022/08/07 13:53:52;;;;;;;2.00;1.50;;;;;;;;;;4988938;28;20718;-76
2022/08/07 13:56:18;;;;;;;2.00;1.30;;;;;;;;;;4988754;28;20432;-76
2022/08/07 13:58:59;;;;;;;2.00;1.23;;;;;;;;;;4992198;28;20675;-76
2022/08/07 14:01:27;;;;;;;1.67;1.10;;;;;;;;;;4988366;28;20501;-76
2022/08/07 14:03:53;;;;;;;1.70;1.00;;;;;;;;;;4995636;28;20432;-76
2022/08/07 14:06:19;;;;;;;1.50;1.07;;;;;;;;;;4957965;28;20927;-76
2022/08/07 14:08:46;;;;;;;1.80;1.40;;;;;;;;;;4985171;28;20668;-75
2022/08/07 14:11:13;;;;;;;1.80;1.30;;;;;;;;;;5003131;28;20558;-75
2022/08/07 14:13:40;;;;;;;2.40;1.60;;;;;;;;;;4982248;28;20590;-73
2022/08/07 14:16:08;;;;;;;6.13;1.20;;;;;;;;;;4983285;28;20444;-75
2022/08/07 14:18:38;;;;;;;1.77;1.13;;;;;;;;;;4986278;28;20532;-79
2022/08/07 14:21:11;;;;;;;2.30;1.60;;;;;;;;;;4984701;28;20462;-75
2022/08/07 14:23:37;;;;;;;1.97;1.00;;;;;;;;;;5005923;28;20429;-76
2022/08/07 14:26:10;;;;;;;1.93;1.10;;;;;;;;;;4990739;28;20428;-76
2022/08/07 14:29:01;;;;;;;1.83;1.23;;;;;;;;;;4969579;28;21078;-75
2022/08/07 14:31:27;;;;;;;1.97;1.10;;;;;;;;;;5003942;28;20483;-75
2022/08/07 14:33:53;;;;;;;2.47;1.80;;;;;;;;;;5001938;28;20424;-75
2022/08/07 14:36:20;;;;;;;1.80;1.43;;;;;;;;;;4984519;28;20173;-74
2022/08/07 14:38:48;;;;;;;1.80;1.20;;;;;;;;;;4985340;28;20458;-75
2022/08/07 14:41:14;;;;;;;2.00;1.53;;;;;;;;;;4984141;28;20519;-75
2022/08/07 14:47:13;;;;;;;1.80;1.20;;;;;;;;;;4975789;28;20430;-75
2022/08/07 14:49:39;;;;;;;1.70;1.40;;;;;;;;;;4975670;28;20995;-76
2022/08/07 14:52:05;;;;;;;4.90;1.50;;;;;;;;;;4985640;28;20969;-76
2022/08/07 14:54:31;;;;;;;2.40;1.23;;;;;;;;;;4993186;28;20458;-75
2022/08/07 14:56:58;;;;;;;1.90;1.40;;;;;;;;;;5010721;28;20448;-75
2022/08/07 14:59:29;;;;;;;2.90;1.50;;;;;;;;;;4961916;28;20514;-74
2022/08/07 15:01:57;;;;;;;1.80;1.20;;;;;;;;;;5003990;28;21017;-75
2022/08/07 15:04:23;;;;;;;1.70;1.37;;;;;;;;;;4988507;28;20440;-75
2022/08/07 15:06:49;;;;;;;1.77;1.13;;;;;;;;;;4999737;28;20448;-75
2022/08/07 15:09:16;;;;;;;3.77;1.67;;;;;;;;;;4984900;28;20787;-75
2022/08/07 15:12:03;;;;;;;3.20;1.63;;;;;;;;;;4985393;28;20569;-75
2022/08/07 15:14:29;;;;;;;1.90;1.37;;;;;;;;;;4976590;28;21520;-75
2022/08/07 15:16:59;;;;;;;1.73;1.17;;;;;;;;;;4990928;28;20434;-75
2022/08/07 15:19:27;;;;;;;4.23;1.70;;;;;;;;;;4984594;28;20181;-73
2022/08/07 15:21:54;;;;;;;2.50;1.73;;;;;;;;;;4989406;28;20443;-75
2022/08/07 15:24:25;;;;;;;2.10;1.70;;;;;;;;;;4970505;28;20432;-75